sensor_id;sensor_type;location;lat;lon;timestamp;P1;durP1;ratioP1;P2;durP2;ratioP2
52776;SDS011;38656;54.260;20.822;2023-04-03T00:00:53;7.05;;;4.50;;
52776;SDS011;38656;54.260;20.822;2023-04-03T00:03:20;13.25;;;5.75;;
52776;SDS011;38656;54.260;20.822;2023-04-03T00:05:46;9.65;;;4.53;;
52776;SDS011;38656;54.260;20.822;2023-04-03T00:08:13;13.00;;;6.30;;
52776;SDS011;38656;54.260;20.822;2023-04-03T00:10:39;12.82;;;5.88;;
52776;SDS011;38656;54.260;20.822;2023-04-03T00:13:05;8.95;;;4.60;;
52776;SDS011;38656;54.260;20.822;2023-04-03T00:15:33;7.97;;;4.05;;
52776;SDS011;38656;54.260;20.822;2023-04-03T00:18:00;8.65;;;3.97;;
52776;SDS011;38656;54.260;20.822;2023-04-03T00:20:27;9.30;;;4.20;;
52776;SDS011;38656;54.260;20.822;2023-04-03T00:22:54;7.60;;;4.90;;
52776;SDS011;38656;54.260;20.822;2023-04-03T00:25:20;8.20;;;4.00;;
52776;SDS011;38656;54.260;20.822;2023-04-03T00:27:47;12.00;;;5.22;;
52776;SDS011;38656;54.260;20.822;2023-04-03T00:30:14;5.55;;;3.88;;
52776;SDS011;38656;54.260;20.822;2023-04-03T00:32:42;7.28;;;4.70;;
52776;SDS011;38656;54.260;20.822;2023-04-03T00:35:08;5.80;;;3.88;;
52776;SDS011;38656;54.260;20.822;2023-04-03T00:37:35;8.68;;;5.28;;
52776;SDS011;38656;54.260;20.822;2023-04-03T00:40:02;8.18;;;5.47;;
52776;SDS011;38656;54.260;20.822;2023-04-03T00:42:30;9.18;;;4.70;;
52776;SDS011;38656;54.260;20.822;2023-04-03T00:47:22;9.45;;;4.53;;
52776;SDS011;38656;54.260;20.822;2023-04-03T00:49:49;7.13;;;5.28;;
52776;SDS011;38656;54.260;20.822;2023-04-03T00:52:17;7.15;;;3.80;;
52776;SDS011;38656;54.260;20.822;2023-04-03T00:54:47;8.43;;;4.35;;
52776;SDS011;38656;54.260;20.822;2023-04-03T00:57:17;6.90;;;4.35;;
52776;SDS011;38656;54.260;20.822;2023-04-03T00:59:46;9.35;;;4.97;;
52776;SDS011;38656;54.260;20.822;2023-04-03T01:02:18;7.78;;;3.83;;
52776;SDS011;38656;54.260;20.822;2023-04-03T01:04:45;10.88;;;4.10;;
52776;SDS011;38656;54.260;20.822;2023-04-03T01:07:13;8.90;;;3.55;;
52776;SDS011;38656;54.260;20.822;2023-04-03T01:09:43;8.93;;;3.88;;
52776;SDS011;38656;54.260;20.822;2023-04-03T01:14:50;7.00;;;4.38;;
52776;SDS011;38656;54.260;20.822;2023-04-03T01:17:29;5.43;;;3.50;;
52776;SDS011;38656;54.260;20.822;2023-04-03T01:20:11;4.57;;;3.20;;
52776;SDS011;38656;54.260;20.822;2023-04-03T01:25:50;8.63;;;3.97;;
52776;SDS011;38656;54.260;20.822;2023-04-03T01:28:25;6.82;;;4.18;;
52776;SDS011;38656;54.260;20.822;2023-04-03T01:34:13;7.95;;;3.20;;
52776;SDS011;38656;54.260;20.822;2023-04-03T01:36:40;3.58;;;3.10;;
52776;SDS011;38656;54.260;20.822;2023-04-03T01:39:06;5.75;;;3.63;;
52776;SDS011;38656;54.260;20.822;2023-04-03T01:41:32;6.20;;;3.53;;
52776;SDS011;38656;54.260;20.822;2023-04-03T01:43:59;5.97;;;3.17;;
52776;SDS011;38656;54.260;20.822;2023-04-03T01:46:25;7.82;;;4.10;;
52776;SDS011;38656;54.260;20.822;2023-04-03T01:48:51;4.40;;;2.72;;
52776;SDS011;38656;54.260;20.822;2023-04-03T01:51:17;7.05;;;2.80;;
52776;SDS011;38656;54.260;20.822;2023-04-03T01:53:43;4.85;;;2.72;;
52776;SDS011;38656;54.260;20.822;2023-04-03T01:56:10;4.90;;;3.10;;
52776;SDS011;38656;54.260;20.822;2023-04-03T01:58:36;8.02;;;3.33;;
52776;SDS011;38656;54.260;20.822;2023-04-03T02:01:02;4.57;;;3.15;;
52776;SDS011;38656;54.260;20.822;2023-04-03T02:03:28;5.75;;;3.47;;
52776;SDS011;38656;54.260;20.822;2023-04-03T02:05:55;5.07;;;3.38;;
52776;SDS011;38656;54.260;20.822;2023-04-03T02:08:22;4.85;;;3.63;;
52776;SDS011;38656;54.260;20.822;2023-04-03T02:10:48;9.10;;;4.13;;
52776;SDS011;38656;54.260;20.822;2023-04-03T02:13:16;7.43;;;4.45;;
52776;SDS011;38656;54.260;20.822;2023-04-03T02:15:43;4.00;;;3.00;;
52776;SDS011;38656;54.260;20.822;2023-04-03T02:18:10;6.82;;;3.25;;
52776;SDS011;38656;54.260;20.822;2023-04-03T02:20:37;9.35;;;4.32;;
52776;SDS011;38656;54.260;20.822;2023-04-03T02:23:03;8.05;;;3.47;;
52776;SDS011;38656;54.260;20.822;2023-04-03T02:25:30;6.85;;;3.25;;
52776;SDS011;38656;54.260;20.822;2023-04-03T02:27:57;6.38;;;3.53;;
52776;SDS011;38656;54.260;20.822;2023-04-03T02:30:24;6.75;;;4.13;;
52776;SDS011;38656;54.260;20.822;2023-04-03T02:32:51;6.85;;;3.30;;
52776;SDS011;38656;54.260;20.822;2023-04-03T02:35:18;5.80;;;3.67;;
52776;SDS011;38656;54.260;20.822;2023-04-03T02:37:44;4.63;;;3.53;;
52776;SDS011;38656;54.260;20.822;2023-04-03T02:40:10;5.97;;;3.78;;
52776;SDS011;38656;54.260;20.822;2023-04-03T02:42:37;5.55;;;3.60;;
52776;SDS011;38656;54.260;20.822;2023-04-03T02:45:03;8.18;;;4.60;;
52776;SDS011;38656;54.260;20.822;2023-04-03T02:47:30;7.85;;;5.05;;
52776;SDS011;38656;54.260;20.822;2023-04-03T02:49:56;9.52;;;4.18;;
52776;SDS011;38656;54.260;20.822;2023-04-03T02:52:22;5.78;;;3.85;;
52776;SDS011;38656;54.260;20.822;2023-04-03T02:54:48;8.85;;;4.22;;
52776;SDS011;38656;54.260;20.822;2023-04-03T02:57:14;6.28;;;3.38;;
52776;SDS011;38656;54.260;20.822;2023-04-03T02:59:41;5.10;;;3.72;;
52776;SDS011;38656;54.260;20.822;2023-04-03T03:02:07;10.18;;;4.82;;
52776;SDS011;38656;54.260;20.822;2023-04-03T03:04:34;10.18;;;4.97;;
52776;SDS011;38656;54.260;20.822;2023-04-03T03:07:00;8.05;;;4.10;;
52776;SDS011;38656;54.260;20.822;2023-04-03T03:09:27;5.75;;;3.90;;
52776;SDS011;38656;54.260;20.822;2023-04-03T03:11:54;11.07;;;4.03;;
52776;SDS011;38656;54.260;20.822;2023-04-03T03:14:21;14.27;;;4.18;;
52776;SDS011;38656;54.260;20.822;2023-04-03T03:16:47;9.02;;;4.40;;
52776;SDS011;38656;54.260;20.822;2023-04-03T03:19:14;6.13;;;4.13;;
52776;SDS011;38656;54.260;20.822;2023-04-03T03:21:40;6.30;;;3.65;;
52776;SDS011;38656;54.260;20.822;2023-04-03T03:24:07;5.30;;;3.10;;
52776;SDS011;38656;54.260;20.822;2023-04-03T03:26:33;7.95;;;3.00;;
52776;SDS011;38656;54.260;20.822;2023-04-03T03:28:59;3.03;;;2.10;;
52776;SDS011;38656;54.260;20.822;2023-04-03T03:31:25;3.83;;;3.03;;
52776;SDS011;38656;54.260;20.822;2023-04-03T03:33:52;3.75;;;2.38;;
52776;SDS011;38656;54.260;20.822;2023-04-03T03:36:18;6.05;;;2.85;;
52776;SDS011;38656;54.260;20.822;2023-04-03T03:38:44;5.20;;;2.80;;
52776;SDS011;38656;54.260;20.822;2023-04-03T03:41:10;4.50;;;2.47;;
52776;SDS011;38656;54.260;20.822;2023-04-03T03:43:36;3.75;;;2.33;;
52776;SDS011;38656;54.260;20.822;2023-04-03T03:46:03;3.53;;;2.55;;
52776;SDS011;38656;54.260;20.822;2023-04-03T03:48:29;7.20;;;3.05;;
52776;SDS011;38656;54.260;20.822;2023-04-03T03:50:55;5.80;;;2.08;;
52776;SDS011;38656;54.260;20.822;2023-04-03T03:53:21;3.60;;;1.88;;
52776;SDS011;38656;54.260;20.822;2023-04-03T03:55:48;5.95;;;2.25;;
52776;SDS011;38656;54.260;20.822;2023-04-03T03:58:14;3.35;;;2.00;;
52776;SDS011;38656;54.260;20.822;2023-04-03T04:00:40;4.78;;;1.98;;
52776;SDS011;38656;54.260;20.822;2023-04-03T04:03:06;3.83;;;2.00;;
52776;SDS011;38656;54.260;20.822;2023-04-03T04:05:32;3.20;;;2.15;;
52776;SDS011;38656;54.260;20.822;2023-04-03T04:07:59;3.22;;;1.80;;
52776;SDS011;38656;54.260;20.822;2023-04-03T04:10:25;3.65;;;1.98;;
52776;SDS011;38656;54.260;20.822;2023-04-03T04:12:51;5.88;;;1.80;;
52776;SDS011;38656;54.260;20.822;2023-04-03T04:15:18;4.85;;;1.90;;
52776;SDS011;38656;54.260;20.822;2023-04-03T04:17:46;5.75;;;1.70;;
52776;SDS011;38656;54.260;20.822;2023-04-03T04:20:12;4.40;;;2.03;;
52776;SDS011;38656;54.260;20.822;2023-04-03T04:22:39;4.47;;;2.22;;
52776;SDS011;38656;54.260;20.822;2023-04-03T04:25:05;6.47;;;1.90;;
52776;SDS011;38656;54.260;20.822;2023-04-03T04:27:32;2.08;;;1.55;;
52776;SDS011;38656;54.260;20.822;2023-04-03T04:29:58;3.67;;;1.92;;
52776;SDS011;38656;54.260;20.822;2023-04-03T04:32:25;4.55;;;2.30;;
52776;SDS011;38656;54.260;20.822;2023-04-03T04:34:52;5.90;;;1.95;;
52776;SDS011;38656;54.260;20.822;2023-04-03T04:37:18;3.15;;;1.58;;
52776;SDS011;38656;54.260;20.822;2023-04-03T04:39:44;6.10;;;3.25;;
52776;SDS011;38656;54.260;20.822;2023-04-03T04:42:11;5.65;;;1.85;;
52776;SDS011;38656;54.260;20.822;2023-04-03T04:44:38;1.98;;;1.52;;
52776;SDS011;38656;54.260;20.822;2023-04-03T04:47:04;2.25;;;1.98;;
52776;SDS011;38656;54.260;20.822;2023-04-03T04:49:31;3.05;;;1.70;;
52776;SDS011;38656;54.260;20.822;2023-04-03T04:51:57;2.17;;;1.83;;
52776;SDS011;38656;54.260;20.822;2023-04-03T04:54:23;3.78;;;1.95;;
52776;SDS011;38656;54.260;20.822;2023-04-03T04:56:49;3.45;;;2.15;;
52776;SDS011;38656;54.260;20.822;2023-04-03T04:59:16;7.72;;;2.20;;
52776;SDS011;38656;54.260;20.822;2023-04-03T05:01:42;4.47;;;2.22;;
52776;SDS011;38656;54.260;20.822;2023-04-03T05:04:08;4.38;;;2.47;;
52776;SDS011;38656;54.260;20.822;2023-04-03T05:06:34;12.13;;;6.35;;
52776;SDS011;38656;54.260;20.822;2023-04-03T05:09:01;5.40;;;3.33;;
52776;SDS011;38656;54.260;20.822;2023-04-03T05:11:27;7.88;;;5.20;;
52776;SDS011;38656;54.260;20.822;2023-04-03T05:13:53;3.40;;;1.98;;
52776;SDS011;38656;54.260;20.822;2023-04-03T05:16:20;4.65;;;2.63;;
52776;SDS011;38656;54.260;20.822;2023-04-03T05:18:46;3.85;;;3.40;;
52776;SDS011;38656;54.260;20.822;2023-04-03T05:21:12;3.33;;;2.55;;
52776;SDS011;38656;54.260;20.822;2023-04-03T05:23:38;3.42;;;2.13;;
52776;SDS011;38656;54.260;20.822;2023-04-03T05:26:05;4.32;;;2.08;;
52776;SDS011;38656;54.260;20.822;2023-04-03T05:28:31;1.90;;;1.77;;
52776;SDS011;38656;54.260;20.822;2023-04-03T05:30:58;4.65;;;1.63;;
52776;SDS011;38656;54.260;20.822;2023-04-03T05:33:24;3.00;;;2.00;;
52776;SDS011;38656;54.260;20.822;2023-04-03T05:35:52;3.35;;;2.47;;
52776;SDS011;38656;54.260;20.822;2023-04-03T05:38:18;2.60;;;2.35;;
52776;SDS011;38656;54.260;20.822;2023-04-03T05:40:45;10.15;;;6.65;;
52776;SDS011;38656;54.260;20.822;2023-04-03T05:43:11;3.17;;;2.15;;
52776;SDS011;38656;54.260;20.822;2023-04-03T05:45:37;26.10;;;12.52;;
52776;SDS011;38656;54.260;20.822;2023-04-03T05:48:03;11.70;;;6.28;;
52776;SDS011;38656;54.260;20.822;2023-04-03T05:50:30;49.22;;;27.77;;
52776;SDS011;38656;54.260;20.822;2023-04-03T05:52:56;13.07;;;9.80;;
52776;SDS011;38656;54.260;20.822;2023-04-03T05:55:24;6.78;;;4.28;;
52776;SDS011;38656;54.260;20.822;2023-04-03T05:57:50;5.30;;;3.47;;
52776;SDS011;38656;54.260;20.822;2023-04-03T06:00:16;10.85;;;5.13;;
52776;SDS011;38656;54.260;20.822;2023-04-03T06:02:43;11.55;;;7.45;;
52776;SDS011;38656;54.260;20.822;2023-04-03T06:05:09;15.65;;;6.93;;
52776;SDS011;38656;54.260;20.822;2023-04-03T06:07:37;11.20;;;6.80;;
52776;SDS011;38656;54.260;20.822;2023-04-03T06:10:03;5.32;;;4.05;;
52776;SDS011;38656;54.260;20.822;2023-04-03T06:12:30;7.03;;;3.83;;
52776;SDS011;38656;54.260;20.822;2023-04-03T06:14:56;11.18;;;6.32;;
52776;SDS011;38656;54.260;20.822;2023-04-03T06:17:23;9.48;;;5.38;;
52776;SDS011;38656;54.260;20.822;2023-04-03T06:19:49;10.38;;;6.28;;
52776;SDS011;38656;54.260;20.822;2023-04-03T06:22:15;12.45;;;6.88;;
52776;SDS011;38656;54.260;20.822;2023-04-03T06:24:41;16.00;;;5.80;;
52776;SDS011;38656;54.260;20.822;2023-04-03T06:27:09;14.48;;;8.18;;
52776;SDS011;38656;54.260;20.822;2023-04-03T06:29:38;9.77;;;6.00;;
52776;SDS011;38656;54.260;20.822;2023-04-03T06:32:04;11.98;;;8.60;;
52776;SDS011;38656;54.260;20.822;2023-04-03T06:34:31;5.10;;;3.78;;
52776;SDS011;38656;54.260;20.822;2023-04-03T06:36:57;22.95;;;12.80;;
52776;SDS011;38656;54.260;20.822;2023-04-03T06:39:23;17.42;;;10.75;;
52776;SDS011;38656;54.260;20.822;2023-04-03T06:41:49;33.65;;;23.85;;
52776;SDS011;38656;54.260;20.822;2023-04-03T06:44:16;29.58;;;25.42;;
52776;SDS011;38656;54.260;20.822;2023-04-03T06:46:43;12.25;;;8.73;;
52776;SDS011;38656;54.260;20.822;2023-04-03T06:49:11;17.20;;;13.23;;
52776;SDS011;38656;54.260;20.822;2023-04-03T06:51:37;39.85;;;32.20;;
52776;SDS011;38656;54.260;20.822;2023-04-03T06:54:04;33.75;;;25.30;;
52776;SDS011;38656;54.260;20.822;2023-04-03T06:56:31;26.13;;;20.92;;
52776;SDS011;38656;54.260;20.822;2023-04-03T06:58:57;13.57;;;11.60;;
52776;SDS011;38656;54.260;20.822;2023-04-03T07:01:25;11.60;;;9.90;;
52776;SDS011;38656;54.260;20.822;2023-04-03T07:03:54;3.38;;;3.08;;
52776;SDS011;38656;54.260;20.822;2023-04-03T07:06:21;5.95;;;4.25;;
52776;SDS011;38656;54.260;20.822;2023-04-03T07:08:48;2.90;;;2.15;;
52776;SDS011;38656;54.260;20.822;2023-04-03T07:11:14;5.10;;;3.22;;
52776;SDS011;38656;54.260;20.822;2023-04-03T07:13:41;5.68;;;4.68;;
52776;SDS011;38656;54.260;20.822;2023-04-03T07:16:08;4.30;;;2.20;;
52776;SDS011;38656;54.260;20.822;2023-04-03T07:18:34;4.93;;;3.97;;
52776;SDS011;38656;54.260;20.822;2023-04-03T07:21:01;2.22;;;1.60;;
52776;SDS011;38656;54.260;20.822;2023-04-03T07:23:27;3.00;;;2.10;;
52776;SDS011;38656;54.260;20.822;2023-04-03T07:25:54;2.55;;;1.60;;
52776;SDS011;38656;54.260;20.822;2023-04-03T07:28:21;10.65;;;6.45;;
52776;SDS011;38656;54.260;20.822;2023-04-03T07:31:10;10.68;;;6.03;;
52776;SDS011;38656;54.260;20.822;2023-04-03T07:33:38;4.25;;;2.75;;
52776;SDS011;38656;54.260;20.822;2023-04-03T07:36:06;3.47;;;2.42;;
52776;SDS011;38656;54.260;20.822;2023-04-03T07:38:33;4.25;;;1.70;;
52776;SDS011;38656;54.260;20.822;2023-04-03T07:41:01;2.78;;;1.58;;
52776;SDS011;38656;54.260;20.822;2023-04-03T07:43:27;2.33;;;1.40;;
52776;SDS011;38656;54.260;20.822;2023-04-03T07:45:53;3.25;;;1.30;;
52776;SDS011;38656;54.260;20.822;2023-04-03T07:48:20;3.60;;;1.75;;
52776;SDS011;38656;54.260;20.822;2023-04-03T07:50:48;5.55;;;4.05;;
52776;SDS011;38656;54.260;20.822;2023-04-03T07:53:15;2.30;;;1.70;;
52776;SDS011;38656;54.260;20.822;2023-04-03T07:55:41;2.83;;;1.65;;
52776;SDS011;38656;54.260;20.822;2023-04-03T07:58:18;3.60;;;3.15;;
52776;SDS011;38656;54.260;20.822;2023-04-03T08:00:44;6.50;;;4.35;;
52776;SDS011;38656;54.260;20.822;2023-04-03T08:03:11;1.70;;;1.40;;
52776;SDS011;38656;54.260;20.822;2023-04-03T08:05:39;19.92;;;11.32;;
52776;SDS011;38656;54.260;20.822;2023-04-03T08:08:07;15.25;;;9.65;;
52776;SDS011;38656;54.260;20.822;2023-04-03T08:10:34;12.35;;;9.38;;
52776;SDS011;38656;54.260;20.822;2023-04-03T08:13:01;2.58;;;1.73;;
52776;SDS011;38656;54.260;20.822;2023-04-03T08:15:28;1.58;;;1.40;;
52776;SDS011;38656;54.260;20.822;2023-04-03T08:17:56;2.97;;;2.28;;
52776;SDS011;38656;54.260;20.822;2023-04-03T08:20:23;3.65;;;1.77;;
52776;SDS011;38656;54.260;20.822;2023-04-03T08:22:50;4.90;;;3.40;;
52776;SDS011;38656;54.260;20.822;2023-04-03T08:25:16;3.30;;;2.92;;
52776;SDS011;38656;54.260;20.822;2023-04-03T08:27:42;2.40;;;1.92;;
52776;SDS011;38656;54.260;20.822;2023-04-03T08:30:09;1.73;;;1.10;;
52776;SDS011;38656;54.260;20.822;2023-04-03T08:32:36;1.63;;;1.52;;
52776;SDS011;38656;54.260;20.822;2023-04-03T08:35:06;1.52;;;0.98;;
52776;SDS011;38656;54.260;20.822;2023-04-03T08:37:34;2.03;;;1.10;;
52776;SDS011;38656;54.260;20.822;2023-04-03T08:40:02;2.03;;;1.70;;
52776;SDS011;38656;54.260;20.822;2023-04-03T08:42:41;3.25;;;2.67;;
52776;SDS011;38656;54.260;20.822;2023-04-03T08:45:27;3.30;;;1.80;;
52776;SDS011;38656;54.260;20.822;2023-04-03T08:50:53;4.22;;;2.33;;
52776;SDS011;38656;54.260;20.822;2023-04-03T08:53:28;6.55;;;5.03;;
52776;SDS011;38656;54.260;20.822;2023-04-03T08:55:57;7.78;;;5.07;;
52776;SDS011;38656;54.260;20.822;2023-04-03T08:58:28;2.45;;;2.10;;
52776;SDS011;38656;54.260;20.822;2023-04-03T09:01:02;2.75;;;1.77;;
52776;SDS011;38656;54.260;20.822;2023-04-03T09:03:38;2.38;;;1.67;;
52776;SDS011;38656;54.260;20.822;2023-04-03T09:09:23;3.75;;;1.63;;
52776;SDS011;38656;54.260;20.822;2023-04-03T09:20:09;3.45;;;2.67;;
52776;SDS011;38656;54.260;20.822;2023-04-03T09:22:49;12.15;;;6.72;;
52776;SDS011;38656;54.260;20.822;2023-04-03T09:25:26;19.35;;;9.95;;
52776;SDS011;38656;54.260;20.822;2023-04-03T09:30:29;12.43;;;5.95;;
52776;SDS011;38656;54.260;20.822;2023-04-03T09:32:56;11.18;;;5.07;;
52776;SDS011;38656;54.260;20.822;2023-04-03T09:37:53;2.15;;;1.95;;
52776;SDS011;38656;54.260;20.822;2023-04-03T09:42:51;4.80;;;2.50;;
52776;SDS011;38656;54.260;20.822;2023-04-03T09:45:23;8.43;;;2.97;;
52776;SDS011;38656;54.260;20.822;2023-04-03T09:48:07;9.57;;;4.68;;
52776;SDS011;38656;54.260;20.822;2023-04-03T09:58:45;3.47;;;2.78;;
52776;SDS011;38656;54.260;20.822;2023-04-03T10:01:39;3.50;;;2.13;;
52776;SDS011;38656;54.260;20.822;2023-04-03T10:06:41;2.17;;;1.98;;
52776;SDS011;38656;54.260;20.822;2023-04-03T10:09:24;3.35;;;2.55;;
52776;SDS011;38656;54.260;20.822;2023-04-03T10:12:11;4.63;;;2.80;;
52776;SDS011;38656;54.260;20.822;2023-04-03T10:15:00;3.58;;;2.95;;
52776;SDS011;38656;54.260;20.822;2023-04-03T10:17:31;4.45;;;2.88;;
52776;SDS011;38656;54.260;20.822;2023-04-03T10:20:06;2.95;;;2.17;;
52776;SDS011;38656;54.260;20.822;2023-04-03T10:25:51;4.78;;;3.13;;
52776;SDS011;38656;54.260;20.822;2023-04-03T10:28:30;4.70;;;3.40;;
52776;SDS011;38656;54.260;20.822;2023-04-03T10:31:37;4.25;;;3.03;;
52776;SDS011;38656;54.260;20.822;2023-04-03T10:34:30;2.63;;;2.00;;
52776;SDS011;38656;54.260;20.822;2023-04-03T10:39:51;1.52;;;1.33;;
52776;SDS011;38656;54.260;20.822;2023-04-03T10:47:46;2.35;;;1.50;;
52776;SDS011;38656;54.260;20.822;2023-04-03T10:56:25;4.78;;;3.80;;
52776;SDS011;38656;54.260;20.822;2023-04-03T10:59:08;3.63;;;3.00;;
52776;SDS011;38656;54.260;20.822;2023-04-03T11:01:41;4.20;;;2.85;;
52776;SDS011;38656;54.260;20.822;2023-04-03T11:04:10;3.15;;;2.25;;
52776;SDS011;38656;54.260;20.822;2023-04-03T11:06:43;4.13;;;3.10;;
52776;SDS011;38656;54.260;20.822;2023-04-03T11:09:26;5.88;;;3.97;;
52776;SDS011;38656;54.260;20.822;2023-04-03T11:14:58;8.25;;;5.40;;
52776;SDS011;38656;54.260;20.822;2023-04-03T11:17:28;6.25;;;3.38;;
52776;SDS011;38656;54.260;20.822;2023-04-03T11:20:23;10.50;;;5.78;;
52776;SDS011;38656;54.260;20.822;2023-04-03T11:23:01;7.63;;;5.05;;
52776;SDS011;38656;54.260;20.822;2023-04-03T11:25:34;5.57;;;3.13;;
52776;SDS011;38656;54.260;20.822;2023-04-03T11:28:04;6.95;;;3.50;;
52776;SDS011;38656;54.260;20.822;2023-04-03T11:39:20;6.60;;;4.22;;
52776;SDS011;38656;54.260;20.822;2023-04-03T11:42:44;11.02;;;7.53;;
52776;SDS011;38656;54.260;20.822;2023-04-03T11:50:57;4.85;;;3.80;;
52776;SDS011;38656;54.260;20.822;2023-04-03T11:53:29;8.15;;;6.95;;
52776;SDS011;38656;54.260;20.822;2023-04-03T11:56:00;8.75;;;6.80;;
52776;SDS011;38656;54.260;20.822;2023-04-03T11:58:34;3.83;;;3.35;;
52776;SDS011;38656;54.260;20.822;2023-04-03T12:01:08;9.88;;;4.85;;
52776;SDS011;38656;54.260;20.822;2023-04-03T12:11:31;13.75;;;11.93;;
52776;SDS011;38656;54.260;20.822;2023-04-03T12:24:26;48.17;;;36.30;;
52776;SDS011;38656;54.260;20.822;2023-04-03T12:29:27;28.30;;;18.45;;
52776;SDS011;38656;54.260;20.822;2023-04-03T12:46:14;31.65;;;17.73;;
52776;SDS011;38656;54.260;20.822;2023-04-03T12:51:14;106.75;;;56.72;;
52776;SDS011;38656;54.260;20.822;2023-04-03T12:53:44;30.40;;;23.10;;
52776;SDS011;38656;54.260;20.822;2023-04-03T12:56:22;78.38;;;62.88;;
52776;SDS011;38656;54.260;20.822;2023-04-03T13:02:01;8.80;;;7.80;;
52776;SDS011;38656;54.260;20.822;2023-04-03T13:04:28;6.85;;;5.78;;
52776;SDS011;38656;54.260;20.822;2023-04-03T13:06:56;12.27;;;8.20;;
52776;SDS011;38656;54.260;20.822;2023-04-03T13:12:02;10.65;;;9.60;;
52776;SDS011;38656;54.260;20.822;2023-04-03T13:14:36;14.50;;;12.07;;
52776;SDS011;38656;54.260;20.822;2023-04-03T13:17:04;7.05;;;5.63;;
52776;SDS011;38656;54.260;20.822;2023-04-03T13:19:41;10.68;;;7.90;;
52776;SDS011;38656;54.260;20.822;2023-04-03T13:22:11;8.02;;;6.40;;
52776;SDS011;38656;54.260;20.822;2023-04-03T13:24:49;8.55;;;7.72;;
52776;SDS011;38656;54.260;20.822;2023-04-03T13:27:17;9.38;;;8.20;;
52776;SDS011;38656;54.260;20.822;2023-04-03T13:29:51;7.55;;;5.55;;
52776;SDS011;38656;54.260;20.822;2023-04-03T13:32:21;5.32;;;4.30;;
52776;SDS011;38656;54.260;20.822;2023-04-03T13:34:49;6.53;;;5.78;;
52776;SDS011;38656;54.260;20.822;2023-04-03T13:37:26;7.88;;;6.85;;
52776;SDS011;38656;54.260;20.822;2023-04-03T13:42:34;85.75;;;39.25;;
52776;SDS011;38656;54.260;20.822;2023-04-03T13:45:08;55.25;;;37.25;;
52776;SDS011;38656;54.260;20.822;2023-04-03T13:47:48;25.48;;;17.00;;
52776;SDS011;38656;54.260;20.822;2023-04-03T13:50:19;54.10;;;35.75;;
52776;SDS011;38656;54.260;20.822;2023-04-03T13:53:01;59.28;;;39.28;;
52776;SDS011;38656;54.260;20.822;2023-04-03T13:55:37;13.52;;;7.68;;
52776;SDS011;38656;54.260;20.822;2023-04-03T13:58:28;15.52;;;9.27;;
52776;SDS011;38656;54.260;20.822;2023-04-03T14:01:14;9.15;;;5.55;;
52776;SDS011;38656;54.260;20.822;2023-04-03T14:03:59;8.07;;;4.28;;
52776;SDS011;38656;54.260;20.822;2023-04-03T14:06:35;10.32;;;4.88;;
52776;SDS011;38656;54.260;20.822;2023-04-03T14:09:02;4.20;;;3.20;;
52776;SDS011;38656;54.260;20.822;2023-04-03T14:11:29;6.55;;;5.80;;
52776;SDS011;38656;54.260;20.822;2023-04-03T14:14:00;9.30;;;6.18;;
52776;SDS011;38656;54.260;20.822;2023-04-03T14:16:31;5.32;;;3.03;;
52776;SDS011;38656;54.260;20.822;2023-04-03T14:19:02;11.25;;;8.77;;
52776;SDS011;38656;54.260;20.822;2023-04-03T14:21:28;4.38;;;3.28;;
52776;SDS011;38656;54.260;20.822;2023-04-03T14:23:55;7.05;;;5.18;;
52776;SDS011;38656;54.260;20.822;2023-04-03T14:26:22;8.45;;;4.95;;
52776;SDS011;38656;54.260;20.822;2023-04-03T14:28:52;4.25;;;3.60;;
52776;SDS011;38656;54.260;20.822;2023-04-03T14:31:20;9.75;;;6.72;;
52776;SDS011;38656;54.260;20.822;2023-04-03T14:33:47;4.82;;;2.60;;
52776;SDS011;38656;54.260;20.822;2023-04-03T14:36:18;7.50;;;5.30;;
52776;SDS011;38656;54.260;20.822;2023-04-03T14:38:47;3.03;;;2.72;;
52776;SDS011;38656;54.260;20.822;2023-04-03T14:41:15;3.83;;;2.60;;
52776;SDS011;38656;54.260;20.822;2023-04-03T14:43:44;3.53;;;2.60;;
52776;SDS011;38656;54.260;20.822;2023-04-03T14:46:16;9.98;;;6.53;;
52776;SDS011;38656;54.260;20.822;2023-04-03T14:48:43;16.23;;;12.88;;
52776;SDS011;38656;54.260;20.822;2023-04-03T14:51:11;9.48;;;6.78;;
52776;SDS011;38656;54.260;20.822;2023-04-03T14:53:39;7.57;;;5.18;;
52776;SDS011;38656;54.260;20.822;2023-04-03T14:56:14;6.60;;;3.40;;
52776;SDS011;38656;54.260;20.822;2023-04-03T14:58:51;9.48;;;6.53;;
52776;SDS011;38656;54.260;20.822;2023-04-03T15:01:25;9.07;;;5.03;;
52776;SDS011;38656;54.260;20.822;2023-04-03T15:03:52;5.95;;;3.63;;
52776;SDS011;38656;54.260;20.822;2023-04-03T15:06:19;5.97;;;3.17;;
52776;SDS011;38656;54.260;20.822;2023-04-03T15:08:46;13.40;;;4.03;;
52776;SDS011;38656;54.260;20.822;2023-04-03T15:11:13;8.95;;;6.13;;
52776;SDS011;38656;54.260;20.822;2023-04-03T15:13:40;5.03;;;3.60;;
52776;SDS011;38656;54.260;20.822;2023-04-03T15:16:11;7.85;;;4.28;;
52776;SDS011;38656;54.260;20.822;2023-04-03T15:18:43;6.38;;;4.18;;
52776;SDS011;38656;54.260;20.822;2023-04-03T15:21:11;6.13;;;4.50;;
52776;SDS011;38656;54.260;20.822;2023-04-03T15:23:40;8.55;;;5.95;;
52776;SDS011;38656;54.260;20.822;2023-04-03T15:26:07;6.57;;;4.50;;
52776;SDS011;38656;54.260;20.822;2023-04-03T15:28:35;9.65;;;5.63;;
52776;SDS011;38656;54.260;20.822;2023-04-03T15:31:06;12.70;;;6.10;;
52776;SDS011;38656;54.260;20.822;2023-04-03T15:33:33;9.07;;;5.88;;
52776;SDS011;38656;54.260;20.822;2023-04-03T15:36:00;6.85;;;5.63;;
52776;SDS011;38656;54.260;20.822;2023-04-03T15:38:27;11.55;;;6.45;;
52776;SDS011;38656;54.260;20.822;2023-04-03T15:40:53;7.55;;;4.68;;
52776;SDS011;38656;54.260;20.822;2023-04-03T15:43:20;9.00;;;4.85;;
52776;SDS011;38656;54.260;20.822;2023-04-03T15:45:47;20.60;;;13.88;;
52776;SDS011;38656;54.260;20.822;2023-04-03T15:48:14;28.23;;;19.95;;
52776;SDS011;38656;54.260;20.822;2023-04-03T15:50:40;14.32;;;8.88;;
52776;SDS011;38656;54.260;20.822;2023-04-03T15:53:07;54.88;;;41.67;;
52776;SDS011;38656;54.260;20.822;2023-04-03T15:55:34;16.38;;;11.45;;
52776;SDS011;38656;54.260;20.822;2023-04-03T15:58:02;15.07;;;9.75;;
52776;SDS011;38656;54.260;20.822;2023-04-03T16:00:29;9.35;;;6.75;;
52776;SDS011;38656;54.260;20.822;2023-04-03T16:03:01;34.60;;;22.25;;
52776;SDS011;38656;54.260;20.822;2023-04-03T16:05:33;194.18;;;83.28;;
52776;SDS011;38656;54.260;20.822;2023-04-03T16:08:02;45.13;;;33.72;;
52776;SDS011;38656;54.260;20.822;2023-04-03T16:10:30;57.00;;;40.97;;
52776;SDS011;38656;54.260;20.822;2023-04-03T16:12:56;55.60;;;41.65;;
52776;SDS011;38656;54.260;20.822;2023-04-03T16:15:23;111.03;;;57.45;;
52776;SDS011;38656;54.260;20.822;2023-04-03T16:17:50;115.75;;;56.58;;
52776;SDS011;38656;54.260;20.822;2023-04-03T16:20:17;59.08;;;35.10;;
52776;SDS011;38656;54.260;20.822;2023-04-03T16:22:44;116.85;;;60.45;;
52776;SDS011;38656;54.260;20.822;2023-04-03T16:25:10;42.38;;;31.80;;
52776;SDS011;38656;54.260;20.822;2023-04-03T16:27:37;74.65;;;46.05;;
52776;SDS011;38656;54.260;20.822;2023-04-03T16:30:05;86.55;;;46.05;;
52776;SDS011;38656;54.260;20.822;2023-04-03T16:32:32;128.55;;;53.53;;
52776;SDS011;38656;54.260;20.822;2023-04-03T16:34:59;193.20;;;83.43;;
52776;SDS011;38656;54.260;20.822;2023-04-03T16:37:26;62.70;;;44.90;;
52776;SDS011;38656;54.260;20.822;2023-04-03T16:39:52;23.30;;;18.80;;
52776;SDS011;38656;54.260;20.822;2023-04-03T16:42:18;14.27;;;10.88;;
52776;SDS011;38656;54.260;20.822;2023-04-03T16:44:45;13.60;;;10.55;;